createdAt,value
2018-10-07T00:02:13.704Z,100.00
2018-10-07T00:04:43.410Z,100.00
2018-10-07T00:07:13.686Z,100.00
2018-10-07T00:09:43.809Z,100.00
2018-10-07T00:12:13.947Z,100.00
2018-10-07T00:14:44.367Z,100.00
2018-10-07T00:17:14.029Z,100.00
2018-10-07T00:19:44.248Z,100.00
2018-10-07T00:22:14.243Z,100.00
2018-10-07T00:24:44.038Z,100.00
2018-10-07T00:27:13.966Z,100.00
2018-10-07T00:29:44.082Z,100.00
2018-10-07T00:32:15.815Z,100.00
2018-10-07T00:34:47.368Z,100.00
2018-10-07T00:37:16.616Z,100.00
2018-10-07T00:39:47.310Z,100.00
2018-10-07T00:42:16.648Z,100.00
2018-10-07T00:44:46.776Z,100.00
2018-10-07T00:47:16.611Z,100.00
2018-10-07T00:49:46.867Z,100.00
2018-10-07T00:52:16.520Z,100.00
2018-10-07T00:54:46.393Z,100.00
2018-10-07T00:57:16.410Z,100.00
2018-10-07T00:59:46.275Z,100.00
2018-10-07T01:02:15.570Z,100.00
2018-10-07T01:04:45.098Z,100.00
2018-10-07T01:07:14.685Z,100.00
2018-10-07T01:09:44.503Z,100.00
2018-10-07T01:12:13.985Z,100.00
2018-10-07T01:14:44.034Z,100.00
2018-10-07T01:17:13.398Z,100.00
2018-10-07T01:19:43.186Z,100.00
2018-10-07T01:22:12.799Z,100.00
2018-10-07T01:24:42.362Z,100.00
2018-10-07T01:27:12.196Z,100.00
2018-10-07T01:29:41.574Z,100.00
2018-10-07T01:32:11.297Z,100.00
2018-10-07T01:34:40.954Z,100.00
2018-10-07T01:37:11.070Z,100.00
2018-10-07T01:39:41.256Z,100.00
2018-10-07T01:42:10.952Z,100.00
2018-10-07T01:44:40.468Z,100.00
2018-10-07T01:47:10.181Z,100.00
2018-10-07T01:49:39.850Z,100.00
2018-10-07T01:52:11.253Z,100.00
2018-10-07T01:54:41.161Z,100.00
2018-10-07T01:57:10.634Z,100.00
2018-10-07T01:59:40.314Z,100.00
2018-10-07T02:02:09.941Z,100.00
2018-10-07T02:04:39.171Z,100.00
2018-10-07T02:07:09.668Z,100.00
2018-10-07T02:09:39.426Z,100.00
2018-10-07T02:12:09.413Z,100.00
2018-10-07T02:14:39.142Z,100.00
2018-10-07T02:17:08.332Z,100.00
2018-10-07T02:19:38.031Z,100.00
2018-10-07T02:22:07.511Z,100.00
2018-10-07T02:24:37.231Z,100.00
2018-10-07T02:27:06.976Z,100.00
2018-10-07T02:29:36.639Z,100.00
2018-10-07T02:32:06.774Z,100.00
2018-10-07T02:34:36.890Z,100.00
2018-10-07T02:37:06.771Z,100.00
2018-10-07T02:39:36.313Z,100.00
2018-10-07T02:42:06.852Z,100.00
2018-10-07T02:44:36.578Z,100.00
2018-10-07T02:47:06.894Z,100.00
2018-10-07T02:49:36.991Z,100.00
2018-10-07T02:52:07.119Z,100.00
2018-10-07T02:54:37.900Z,100.00
2018-10-07T02:57:07.972Z,100.00
2018-10-07T02:59:37.271Z,100.00
2018-10-07T03:02:07.191Z,100.00
2018-10-07T03:04:36.907Z,100.00
2018-10-07T03:07:07.762Z,100.00
2018-10-07T03:09:37.136Z,100.00
2018-10-07T03:12:06.829Z,100.00
2018-10-07T03:14:36.994Z,100.00
2018-10-07T03:17:06.458Z,100.00
2018-10-07T03:19:36.219Z,100.00
2018-10-07T03:22:05.651Z,100.00
2018-10-07T03:24:35.165Z,100.00
2018-10-07T03:27:05.064Z,100.00
2018-10-07T03:29:34.658Z,100.00
2018-10-07T03:32:04.483Z,100.00
2018-10-07T03:34:34.020Z,100.00
2018-10-07T03:37:03.503Z,100.00
2018-10-07T03:39:33.031Z,100.00
2018-10-07T03:42:02.908Z,100.00
2018-10-07T03:44:33.463Z,100.00
2018-10-07T03:47:02.975Z,100.00
2018-10-07T03:49:32.817Z,100.00
2018-10-07T03:52:03.044Z,100.00
2018-10-07T03:54:32.929Z,100.00
2018-10-07T03:57:02.901Z,100.00
2018-10-07T03:59:33.004Z,100.00
2018-10-07T04:02:03.298Z,100.00
2018-10-07T04:04:32.793Z,100.00
2018-10-07T04:07:02.973Z,100.00
2018-10-07T04:09:32.810Z,100.00
2018-10-07T04:12:03.169Z,100.00
2018-10-07T04:14:32.899Z,100.00
2018-10-07T04:17:02.472Z,100.00
2018-10-07T04:19:32.053Z,100.00
2018-10-07T04:22:01.626Z,100.00
2018-10-07T04:24:32.980Z,100.00
2018-10-07T04:27:03.328Z,100.00
2018-10-07T04:29:33.125Z,100.00
2018-10-07T04:32:02.662Z,100.00
2018-10-07T04:34:32.855Z,100.00
2018-10-07T04:37:02.783Z,100.00
2018-10-07T04:39:32.014Z,100.00
2018-10-07T04:42:01.290Z,100.00
2018-10-07T04:44:31.468Z,100.00
2018-10-07T04:47:00.732Z,100.00
2018-10-07T04:49:31.059Z,100.00
2018-10-07T04:52:00.559Z,100.00
2018-10-07T04:54:30.356Z,100.00
2018-10-07T04:57:00.175Z,100.00
2018-10-07T04:59:29.838Z,100.00
2018-10-07T05:02:00.144Z,100.00
2018-10-07T05:04:30.225Z,100.00
2018-10-07T05:06:59.683Z,100.00
2018-10-07T05:09:29.123Z,100.00
2018-10-07T05:12:01.191Z,100.00
2018-10-07T05:14:31.053Z,100.00
2018-10-07T05:17:01.404Z,100.00
2018-10-07T05:19:31.581Z,100.00
2018-10-07T05:22:01.185Z,100.00
2018-10-07T05:24:31.650Z,100.00
2018-10-07T05:27:01.192Z,100.00
2018-10-07T05:29:30.904Z,100.00
2018-10-07T05:32:00.639Z,100.00
2018-10-07T05:34:30.122Z,100.00
2018-10-07T05:36:59.595Z,100.00
2018-10-07T05:39:29.276Z,100.00
2018-10-07T05:41:58.838Z,100.00
2018-10-07T05:44:28.448Z,100.00
2018-10-07T05:46:58.299Z,100.00
2018-10-07T05:49:27.812Z,100.00
2018-10-07T05:51:57.246Z,100.00
2018-10-07T05:54:27.167Z,100.00
2018-10-07T05:56:57.294Z,100.00
2018-10-07T05:59:26.867Z,100.00
2018-10-07T06:01:58.884Z,100.00
2018-10-07T06:05:02.478Z,100.00
2018-10-07T06:07:32.628Z,100.00
2018-10-07T06:10:02.483Z,100.00
2018-10-07T06:12:32.067Z,100.00
2018-10-07T06:15:13.052Z,100.00
2018-10-07T06:17:43.144Z,100.00
2018-10-07T06:20:12.953Z,100.00
2018-10-07T06:22:42.555Z,100.00
2018-10-07T06:25:12.519Z,100.00
2018-10-07T06:27:41.788Z,100.00
2018-10-07T06:30:11.269Z,100.00
2018-10-07T06:32:41.206Z,100.00
2018-10-07T06:35:10.713Z,100.00
2018-10-07T06:37:41.035Z,100.00
2018-10-07T06:40:11.032Z,100.00
2018-10-07T06:42:41.283Z,100.00
2018-10-07T06:45:10.935Z,100.00
2018-10-07T06:47:40.906Z,100.00
2018-10-07T06:50:10.826Z,100.00
2018-10-07T06:52:40.154Z,100.00
2018-10-07T06:55:09.667Z,100.00
2018-10-07T06:57:39.959Z,100.00
2018-10-07T07:00:09.911Z,100.00
2018-10-07T07:02:39.361Z,100.00
2018-10-07T07:05:10.131Z,100.00
2018-10-07T07:07:39.788Z,100.00
2018-10-07T07:10:09.954Z,100.00
2018-10-07T07:12:39.253Z,100.00
2018-10-07T07:15:08.805Z,100.00
2018-10-07T07:17:40.759Z,100.00
2018-10-07T07:20:12.548Z,100.00
2018-10-07T07:22:42.970Z,100.00
2018-10-07T07:25:12.601Z,100.00
2018-10-07T07:27:42.347Z,100.00
2018-10-07T07:30:11.706Z,100.00
2018-10-07T07:32:41.350Z,100.00
2018-10-07T07:35:11.124Z,100.00
2018-10-07T07:37:40.775Z,100.00
2018-10-07T07:40:10.644Z,100.00
2018-10-07T07:42:40.004Z,100.00
2018-10-07T07:45:10.144Z,100.00
2018-10-07T07:47:39.631Z,100.00
2018-10-07T07:50:09.703Z,100.00
2018-10-07T07:52:39.269Z,100.00
2018-10-07T07:55:09.282Z,100.00
2018-10-07T07:57:39.086Z,100.00
2018-10-07T08:00:08.611Z,100.00
2018-10-07T08:02:38.079Z,100.00
2018-10-07T08:05:07.646Z,100.00
2018-10-07T08:07:37.297Z,100.00
2018-10-07T08:10:07.643Z,100.00
2018-10-07T08:12:37.932Z,100.00
2018-10-07T08:15:08.199Z,100.00
2018-10-07T08:17:38.107Z,100.00
2018-10-07T08:20:08.171Z,100.00
2018-10-07T08:22:37.599Z,100.00
2018-10-07T08:25:07.801Z,100.00
2018-10-07T08:27:37.823Z,100.00
2018-10-07T08:30:09.091Z,100.00
2018-10-07T08:32:39.027Z,100.00
2018-10-07T08:35:08.488Z,100.00
2018-10-07T08:37:37.957Z,100.00
2018-10-07T08:40:07.400Z,100.00
2018-10-07T08:42:37.098Z,100.00
2018-10-07T08:45:07.179Z,100.00
2018-10-07T08:47:36.451Z,100.00
2018-10-07T08:50:05.873Z,100.00
2018-10-07T08:52:35.662Z,100.00
2018-10-07T08:55:05.275Z,100.00
2018-10-07T08:57:34.949Z,100.00
2018-10-07T09:00:04.527Z,100.00
2018-10-07T09:02:33.972Z,100.00
2018-10-07T09:05:03.833Z,100.00
2018-10-07T09:07:34.126Z,100.00
2018-10-07T09:10:03.752Z,100.00
2018-10-07T09:12:33.876Z,100.00
2018-10-07T09:15:03.373Z,98.58
2018-10-07T09:17:33.187Z,98.32
2018-10-07T09:20:03.210Z,98.45
2018-10-07T09:22:33.267Z,98.06
2018-10-07T09:25:02.779Z,98.07
2018-10-07T09:27:32.651Z,97.65
2018-10-07T09:30:02.548Z,95.71
2018-10-07T09:32:32.565Z,95.15
2018-10-07T09:35:02.593Z,96.46
2018-10-07T09:37:31.974Z,96.81
2018-10-07T09:40:01.488Z,96.37
2018-10-07T09:42:31.199Z,94.64
2018-10-07T09:45:01.140Z,94.77
2018-10-07T09:47:30.902Z,95.95
2018-10-07T09:50:01.118Z,96.04
2018-10-07T09:52:31.083Z,97.51
2018-10-07T09:55:00.723Z,95.74
2018-10-07T09:57:30.311Z,94.69
2018-10-07T09:59:59.811Z,94.73
2018-10-07T10:02:30.034Z,94.50
2018-10-07T10:04:59.302Z,94.87
2018-10-07T10:07:29.250Z,92.89
2018-10-07T10:09:58.666Z,91.50
2018-10-07T10:12:27.931Z,91.66
2018-10-07T10:14:57.159Z,90.20
2018-10-07T10:17:27.150Z,90.42
2018-10-07T10:20:03.607Z,89.86
2018-10-07T10:22:39.079Z,89.90
2018-10-07T10:25:21.653Z,88.89
2018-10-07T10:27:59.039Z,87.01
2018-10-07T10:31:08.363Z,87.73
2018-10-07T10:33:43.163Z,86.64
2018-10-07T10:36:31.119Z,86.75
2018-10-07T10:39:06.583Z,87.67
2018-10-07T10:41:44.038Z,89.26
2018-10-07T10:44:22.215Z,88.32
2018-10-07T10:46:55.387Z,87.49
2018-10-07T10:51:39.377Z,87.39
2018-10-07T10:54:13.098Z,86.53
2018-10-07T10:56:48.695Z,85.28
2018-10-07T10:59:39.073Z,87.36
2018-10-07T11:02:15.398Z,87.78
2018-10-07T11:04:53.413Z,88.33
2018-10-07T11:07:25.306Z,87.96
2018-10-07T11:10:08.578Z,85.69
2018-10-07T11:12:44.132Z,86.16
2018-10-07T11:15:24.989Z,83.61
2018-10-07T11:18:35.639Z,82.64
2018-10-07T11:21:15.028Z,89.15
2018-10-07T11:24:04.323Z,86.08
2018-10-07T11:28:51.705Z,86.10
2018-10-07T11:31:28.585Z,84.48
2018-10-07T11:34:08.950Z,85.13
2018-10-07T11:38:56.959Z,84.34
2018-10-07T11:41:29.265Z,83.56
2018-10-07T11:46:07.238Z,80.96
2018-10-07T11:48:47.855Z,80.56
2018-10-07T11:53:26.581Z,80.13
2018-10-07T11:55:55.856Z,81.00
2018-10-07T11:58:25.099Z,80.16
2018-10-07T12:00:54.319Z,80.97
2018-10-07T12:03:23.555Z,81.07
2018-10-07T12:05:53.111Z,81.07
2018-10-07T12:08:22.586Z,82.69
2018-10-07T12:10:51.949Z,81.34
2018-10-07T12:13:21.847Z,81.14
2018-10-07T12:15:51.611Z,84.49
2018-10-07T12:18:21.450Z,82.92
2018-10-07T12:20:50.685Z,82.06
2018-10-07T12:23:19.906Z,80.56
2018-10-07T12:25:49.188Z,80.83
2018-10-07T12:28:18.627Z,81.10
2018-10-07T12:30:47.903Z,81.26
2018-10-07T12:33:17.109Z,79.26
2018-10-07T12:35:46.350Z,80.03
2018-10-07T12:38:15.647Z,82.47
2018-10-07T12:40:45.449Z,79.54
2018-10-07T12:43:14.662Z,80.33
2018-10-07T12:45:43.915Z,80.70
2018-10-07T12:48:13.174Z,80.74
2018-10-07T12:50:42.429Z,78.73
2018-10-07T12:53:11.729Z,78.61
2018-10-07T12:55:41.078Z,77.17
2018-10-07T12:58:10.427Z,77.66
2018-10-07T13:00:39.656Z,78.25
2018-10-07T13:03:09.498Z,75.21
2018-10-07T13:05:38.735Z,76.07
2018-10-07T13:08:08.070Z,78.00
2018-10-07T13:10:37.298Z,76.33
2018-10-07T13:13:06.541Z,75.27
2018-10-07T13:15:36.610Z,70.35
2018-10-07T13:18:05.899Z,68.30
2018-10-07T13:20:35.235Z,68.01
2018-10-07T13:23:04.518Z,70.03
2018-10-07T13:25:33.807Z,70.59
2018-10-07T13:28:03.122Z,70.42
2018-10-07T13:30:32.401Z,67.99
2018-10-07T13:33:01.639Z,69.27
2018-10-07T13:35:30.893Z,69.68
2018-10-07T13:38:00.167Z,69.02
2018-10-07T13:40:29.429Z,68.78
2018-10-07T13:42:58.950Z,68.15
2018-10-07T13:45:28.191Z,70.30
2018-10-07T13:47:58.523Z,67.36
2018-10-07T13:50:27.760Z,67.31
2018-10-07T13:52:57.270Z,67.71
2018-10-07T13:55:26.979Z,66.58
2018-10-07T13:57:56.237Z,66.54
2018-10-07T14:00:25.543Z,66.66
2018-10-07T14:02:54.814Z,65.69
2018-10-07T14:05:24.112Z,64.94
2018-10-07T14:07:54.053Z,65.76
2018-10-07T14:10:23.424Z,65.32
2018-10-07T14:12:52.635Z,65.32
2018-10-07T14:15:21.903Z,65.40
2018-10-07T14:17:51.775Z,66.88
2018-10-07T14:22:49.013Z,69.19
2018-10-07T14:25:18.325Z,66.48
2018-10-07T14:27:47.614Z,65.28
2018-10-07T14:30:17.043Z,66.53
2018-10-07T14:32:46.861Z,64.06
2018-10-07T14:35:16.095Z,64.30
2018-10-07T14:37:45.432Z,65.66
2018-10-07T14:40:14.703Z,67.55
2018-10-07T14:42:43.950Z,68.54
2018-10-07T14:45:13.164Z,69.45
2018-10-07T14:47:42.523Z,70.04
2018-10-07T14:50:11.814Z,65.48
2018-10-07T14:52:41.100Z,64.88
2018-10-07T14:55:10.422Z,65.57
2018-10-07T14:57:39.627Z,66.04
2018-10-07T15:00:08.932Z,67.05
2018-10-07T15:02:38.208Z,68.02
2018-10-07T15:05:07.494Z,66.86
2018-10-07T15:07:36.759Z,67.78
2018-10-07T15:10:06.918Z,68.77
2018-10-07T15:12:36.239Z,68.88
2018-10-07T15:15:05.992Z,68.36
2018-10-07T15:17:35.289Z,67.40
2018-10-07T15:20:04.818Z,67.86
2018-10-07T15:22:34.096Z,67.07
2018-10-07T15:25:03.418Z,66.86
2018-10-07T15:27:32.852Z,67.97
2018-10-07T15:30:02.118Z,66.29
2018-10-07T15:32:31.402Z,67.12
2018-10-07T15:35:00.712Z,67.54
2018-10-07T15:37:30.039Z,67.79
2018-10-07T15:39:59.348Z,68.29
2018-10-07T15:42:28.908Z,67.73
2018-10-07T15:44:58.434Z,67.36
2018-10-07T15:47:27.775Z,67.85
2018-10-07T15:49:57.060Z,67.35
2018-10-07T15:52:26.538Z,68.35
2018-10-07T15:54:56.558Z,68.34
2018-10-07T15:57:25.796Z,67.98
2018-10-07T15:59:55.036Z,67.33
2018-10-07T16:02:24.240Z,68.33
2018-10-07T16:04:54.079Z,69.30
2018-10-07T16:07:23.350Z,70.47
2018-10-07T16:09:52.679Z,71.20
2018-10-07T16:12:21.831Z,70.82
2018-10-07T16:14:51.099Z,70.14
2018-10-07T16:17:20.323Z,70.67
2018-10-07T16:19:49.563Z,70.67
2018-10-07T16:22:18.862Z,70.89
2018-10-07T16:24:48.190Z,72.04
2018-10-07T16:27:17.441Z,70.28
2018-10-07T16:29:46.668Z,69.81
2018-10-07T16:32:16.000Z,69.81
2018-10-07T16:34:45.173Z,71.13
2018-10-07T16:37:14.424Z,71.48
2018-10-07T16:39:43.743Z,71.62
2018-10-07T16:42:13.811Z,71.05
2018-10-07T16:44:43.140Z,71.68
2018-10-07T16:47:13.502Z,71.22
2018-10-07T16:49:42.794Z,72.60
2018-10-07T16:52:12.390Z,72.26
2018-10-07T16:54:41.611Z,72.60
2018-10-07T16:57:10.994Z,72.81
2018-10-07T16:59:40.354Z,72.84
2018-10-07T17:02:09.588Z,72.85
2018-10-07T17:04:38.817Z,74.11
2018-10-07T17:07:08.112Z,74.21
2018-10-07T17:09:37.888Z,74.48
2018-10-07T17:12:07.440Z,75.98
2018-10-07T17:14:36.708Z,77.17
2018-10-07T17:17:06.259Z,76.76
2018-10-07T17:19:35.573Z,77.03
2018-10-07T17:22:05.488Z,77.31
2018-10-07T17:24:35.455Z,79.07
2018-10-07T17:27:04.699Z,79.29
2018-10-07T17:29:33.965Z,80.56
2018-10-07T17:32:03.195Z,80.99
2018-10-07T17:34:32.737Z,82.20
2018-10-07T17:37:03.487Z,83.35
2018-10-07T17:39:32.967Z,83.48
2018-10-07T17:42:02.502Z,84.34
2018-10-07T17:44:32.443Z,85.79
2018-10-07T17:47:02.772Z,85.88
2018-10-07T17:49:32.628Z,86.51
2018-10-07T17:52:02.166Z,87.59
2018-10-07T17:54:31.654Z,87.71
2018-10-07T17:57:00.923Z,88.53
2018-10-07T17:59:30.515Z,88.84
2018-10-07T18:02:00.218Z,90.12
2018-10-07T18:04:30.274Z,89.89
2018-10-07T18:06:59.787Z,90.02
2018-10-07T18:09:29.840Z,90.27
2018-10-07T18:12:00.234Z,89.47
2018-10-07T18:14:29.714Z,90.64
2018-10-07T18:16:59.475Z,89.79
2018-10-07T18:19:29.146Z,90.88
2018-10-07T18:21:58.767Z,92.19
2018-10-07T18:24:28.203Z,91.52
2018-10-07T18:26:57.659Z,91.06
2018-10-07T18:29:26.911Z,91.45
2018-10-07T18:31:56.162Z,90.80
2018-10-07T18:34:25.438Z,90.11
2018-10-07T18:36:54.696Z,90.61
2018-10-07T18:39:24.018Z,91.55
2018-10-07T18:41:53.253Z,91.83
2018-10-07T18:44:22.766Z,91.83
2018-10-07T18:46:52.043Z,92.56
2018-10-07T18:49:21.447Z,93.32
2018-10-07T18:51:50.701Z,93.00
2018-10-07T18:54:20.002Z,93.13
2018-10-07T18:56:49.255Z,94.34
2018-10-07T18:59:18.494Z,93.95
2018-10-07T19:01:47.729Z,93.65
2018-10-07T19:04:17.067Z,94.15
2018-10-07T19:06:46.350Z,94.86
2018-10-07T19:09:15.666Z,95.16
2018-10-07T19:11:44.923Z,95.60
2018-10-07T19:14:14.321Z,95.98
2018-10-07T19:16:44.456Z,96.14
2018-10-07T19:19:13.682Z,96.56
2018-10-07T19:21:42.903Z,96.58
2018-10-07T19:24:12.133Z,96.79
2018-10-07T19:26:41.515Z,97.66
2018-10-07T19:29:10.787Z,98.23
2018-10-07T19:31:40.045Z,99.97
2018-10-07T19:34:09.426Z,99.94
2018-10-07T19:36:38.716Z,98.81
2018-10-07T19:39:09.391Z,98.34
2018-10-07T19:41:38.907Z,99.24
2018-10-07T19:44:08.144Z,100.00
2018-10-07T19:46:37.775Z,100.00
2018-10-07T19:49:07.135Z,99.76
2018-10-07T19:51:36.385Z,100.00
2018-10-07T19:54:05.633Z,100.00
2018-10-07T19:56:35.045Z,100.00
2018-10-07T19:59:04.348Z,100.00
2018-10-07T20:01:33.597Z,100.00
2018-10-07T20:04:03.593Z,100.00
2018-10-07T20:06:33.236Z,100.00
2018-10-07T20:09:02.561Z,100.00
2018-10-07T20:11:31.757Z,100.00
2018-10-07T20:14:01.035Z,100.00
2018-10-07T20:16:30.672Z,100.00
2018-10-07T20:19:00.651Z,100.00
2018-10-07T20:21:30.267Z,100.00
2018-10-07T20:23:59.525Z,100.00
2018-10-07T20:26:29.064Z,100.00
2018-10-07T20:28:58.671Z,100.00
2018-10-07T20:31:28.319Z,100.00
2018-10-07T20:33:57.833Z,100.00
2018-10-07T20:36:27.097Z,100.00
2018-10-07T20:38:56.991Z,100.00
2018-10-07T20:41:26.437Z,100.00
2018-10-07T20:43:55.909Z,100.00
2018-10-07T20:46:25.115Z,100.00
2018-10-07T20:48:54.366Z,100.00
2018-10-07T20:51:23.675Z,100.00
2018-10-07T20:53:53.131Z,100.00
2018-10-07T20:56:22.439Z,100.00
2018-10-07T20:58:52.232Z,100.00
2018-10-07T21:01:21.540Z,100.00
2018-10-07T21:03:50.808Z,100.00
2018-10-07T21:06:20.248Z,100.00
2018-10-07T21:08:49.563Z,100.00
2018-10-07T21:11:18.982Z,100.00
2018-10-07T21:13:48.228Z,100.00
2018-10-07T21:16:17.596Z,100.00
2018-10-07T21:18:46.921Z,100.00
2018-10-07T21:21:16.159Z,100.00
2018-10-07T21:23:45.438Z,100.00
2018-10-07T21:26:14.695Z,100.00
2018-10-07T21:28:44.001Z,100.00
2018-10-07T21:31:13.413Z,100.00
2018-10-07T21:33:42.667Z,100.00
2018-10-07T21:36:12.591Z,100.00
2018-10-07T21:38:41.858Z,100.00
2018-10-07T21:41:11.212Z,100.00
2018-10-07T21:43:40.486Z,100.00
2018-10-07T21:46:09.772Z,100.00
2018-10-07T21:48:39.019Z,100.00
2018-10-07T21:51:08.363Z,100.00
2018-10-07T21:53:37.699Z,100.00
2018-10-07T21:56:07.293Z,100.00
2018-10-07T21:58:36.868Z,100.00
2018-10-07T22:01:06.103Z,100.00
2018-10-07T22:03:35.711Z,100.00
2018-10-07T22:06:05.111Z,100.00
2018-10-07T22:08:34.555Z,100.00
2018-10-07T22:11:04.443Z,100.00
2018-10-07T22:13:33.760Z,100.00
2018-10-07T22:16:03.020Z,100.00
2018-10-07T22:18:32.274Z,100.00
2018-10-07T22:21:01.708Z,100.00
2018-10-07T22:23:31.408Z,100.00
2018-10-07T22:26:01.139Z,100.00
2018-10-07T22:28:30.893Z,100.00
2018-10-07T22:31:01.839Z,100.00
2018-10-07T22:33:31.492Z,100.00
2018-10-07T22:36:01.894Z,100.00
2018-10-07T22:38:31.787Z,100.00
2018-10-07T22:41:01.056Z,100.00
2018-10-07T22:43:30.543Z,100.00
2018-10-07T22:46:00.016Z,100.00
2018-10-07T22:48:30.003Z,100.00
2018-10-07T22:50:59.895Z,100.00
2018-10-07T22:53:30.519Z,100.00
2018-10-07T22:56:01.418Z,100.00
2018-10-07T22:58:31.571Z,100.00
2018-10-07T23:01:01.632Z,100.00
2018-10-07T23:03:31.918Z,100.00
2018-10-07T23:06:02.153Z,100.00
2018-10-07T23:08:31.532Z,100.00
2018-10-07T23:11:01.027Z,100.00
2018-10-07T23:13:30.970Z,100.00
2018-10-07T23:16:01.043Z,100.00
2018-10-07T23:18:31.145Z,100.00
2018-10-07T23:21:01.696Z,100.00
2018-10-07T23:23:31.192Z,100.00
2018-10-07T23:26:00.450Z,100.00
2018-10-07T23:28:30.140Z,100.00
2018-10-07T23:30:59.502Z,100.00
2018-10-07T23:33:29.266Z,100.00
2018-10-07T23:35:58.732Z,100.00
2018-10-07T23:38:28.064Z,100.00
2018-10-07T23:40:59.702Z,100.00
2018-10-07T23:43:29.097Z,100.00
2018-10-07T23:45:58.578Z,100.00
2018-10-07T23:48:28.106Z,100.00
2018-10-07T23:50:58.104Z,100.00
2018-10-07T23:53:27.345Z,100.00
2018-10-07T23:55:57.426Z,100.00
2018-10-07T23:58:27.456Z,100.00
